Bf Esperanza — V2BR8 — position and weather

sailwx.info

Track history (hours):
 
Tides and Currents Weather Stations Pressure Air Temp Water Temp Dewpoint Dewpoint Depression Visibility Wind Speed Wind Dir Waves Ship Positions

Bf Esperanza

Last reported at 2014-Jul-23 10:19 UTC. Time now 2014-Jul-24 06:28 UTC.
Position N 36°25' W 004°03'.

Length 135 m; draft 8.3 m.

Type: Cargo ship. MMSI: 304907000.

Date/timePositionNaut miles runAvg speedWind from/ knotsBaromVisibWave heightAir tempDewpointWater temp
2014-Jul-23 10:19N 36°25' W 004°03'79 2.4
2014-Jul-22 02:11N 36°24' W 002°25'1113.1
2014-Jul-22 01:21N 36°26' W 002°12'2513.6
2014-Jul-21 23:32N 36°42' W 001°48'1413.4
2014-Jul-21 22:29N 36°51' W 001°35'1313.7
2014-Jul-21 21:33N 36°60' W 001°23'1813.5
2014-Jul-21 20:12N 37°12' W 001°05'913.5
2014-Jul-21 19:32N 37°17' W 000°57'1413.7
2014-Jul-21 18:33N 37°27' W 000°44'1313.4
2014-Jul-21 17:32N 37°36' W 000°32'1313.3
2014-Jul-21 16:31N 37°47' W 000°22'1212.9
2014-Jul-21 15:33N 37°57' W 000°14'1312.7
2014-Jul-21 14:30N 38°09' W 000°05'1312.8
2014-Jul-21 13:28N 38°20' E 000°04'6611.1
2014-Jul-21 07:33N 39°24' W 000°15'5 3.9
2014-Jul-21 06:21N 39°27' W 000°19'0 0.0
2014-Jul-21 05:33N 39°27' W 000°19'0 0.0
2014-Jul-21 04:32N 39°27' W 000°19'0 0.0
2014-Jul-21 03:29N 39°27' W 000°19'0 0.0
2014-Jul-21 02:28N 39°27' W 000°19'0 0.0
2014-Jul-21 01:31N 39°27' W 000°19'0 0.0
2014-Jul-21 00:18N 39°27' W 000°19'0 0.0
2014-Jul-20 23:24N 39°27' W 000°19'0 0.0
2014-Jul-20 22:27N 39°27' W 000°19'0 0.0
2014-Jul-20 20:23N 39°27' W 000°19'0 0.0
2014-Jul-20 19:31N 39°27' W 000°19'0 0.0
2014-Jul-20 18:31N 39°27' W 000°19'0 0.0
2014-Jul-20 17:33N 39°27' W 000°19'4 3.7
2014-Jul-20 16:33N 39°26' W 000°14'2713.7
2014-Jul-20 14:33N 39°45' E 000°12'2813.5
2014-Jul-20 12:28N 40°04' E 000°39'1213.6
2014-Jul-20 11:33N 40°12' E 000°51'1413.4
2014-Jul-20 10:33N 40°22' E 001°04'1414.0
2014-Jul-20 09:33N 40°31' E 001°17'1414.1
2014-Jul-20 08:33N 40°40' E 001°31'1414.0
2014-Jul-20 07:33N 40°49' E 001°45'1515.2
2014-Jul-20 06:33N 40°59' E 002°00'1414.1
2014-Jul-20 05:33N 41°08' E 002°15'1313.5
2014-Jul-20 04:33N 41°17' E 002°29'1413.6
2014-Jul-20 03:33N 41°25' E 002°43'1413.6
2014-Jul-20 02:32N 41°34' E 002°57'1313.6
2014-Jul-20 01:33N 41°43' E 003°10'1313.3
2014-Jul-20 00:33N 41°52' E 003°24'1413.7
2014-Jul-19 23:33N 42°01' E 003°37'1414.1
2014-Jul-19 22:33N 42°11' E 003°51'1714.2
2014-Jul-19 21:19N 42°24' E 004°07'1114.0
2014-Jul-19 20:33N 42°31' E 004°17'1714.4
2014-Jul-19 19:24N 42°44' E 004°33'294350.4
2014-Jul-19 18:34N 41°26' E 010°54'205204.8
2014-Jul-19 17:33N 38°25' E 008°49'331331.2
2014-Jul-19 16:33N 43°11' E 005°08'1312.8
2014-Jul-19 15:33N 43°21' E 005°19'1 0.7
2014-Jul-19 14:23N 43°21' E 005°20'0 0.0
2014-Jul-19 13:20N 43°21' E 005°20'0 0.0
2014-Jul-19 12:31N 43°21' E 005°20'0 0.0
2014-Jul-19 11:22N 43°21' E 005°20'0 0.0
2014-Jul-19 10:31N 43°21' E 005°20'0 0.0
2014-Jul-19 09:18N 43°21' E 005°20'0 0.0
2014-Jul-19 08:30N 43°21' E 005°20'0 0.0
2014-Jul-19 07:26N 43°21' E 005°20'0 0.0
2014-Jul-19 06:29N 43°21' E 005°20'0 0.0
2014-Jul-19 05:33N 43°21' E 005°20'0 0.0
2014-Jul-19 04:32N 43°21' E 005°20'0 0.0
2014-Jul-19 03:23N 43°21' E 005°20'0 0.0
2014-Jul-19 02:22N 43°21' E 005°20'0 0.0
2014-Jul-19 01:28N 43°21' E 005°20'0 0.0
2014-Jul-19 00:31N 43°21' E 005°20'0 0.0
2014-Jul-18 23:27N 43°21' E 005°20'0 0.0
2014-Jul-18 22:33N 43°21' E 005°20'0 0.0
2014-Jul-18 21:26N 43°21' E 005°20'0 0.0
2014-Jul-18 20:31N 43°21' E 005°20'0 0.0
2014-Jul-18 19:31N 43°21' E 005°20'4 4.3
2014-Jul-18 18:33N 43°19' E 005°15'1414.1
2014-Jul-18 17:33N 43°07' E 005°04'1515.7
2014-Jul-18 16:33N 42°56' E 004°49'1515.5
2014-Jul-18 15:34N 42°45' E 004°34'1515.4
2014-Jul-18 14:34N 42°34' E 004°20'1515.2
2014-Jul-18 13:34N 42°23' E 004°06'1515.3
2014-Jul-18 12:33N 42°12' E 003°51'1615.7
2014-Jul-18 11:33N 42°00' E 003°37'1616.0
2014-Jul-18 10:34N 41°50' E 003°21'1616.1
2014-Jul-18 09:33N 41°41' E 003°03'1716.5
2014-Jul-18 08:34N 41°31' E 002°45'1616.4
2014-Jul-18 07:33N 41°23' E 002°26'1312.7
2014-Jul-18 06:33N 41°18' E 002°10'3 3.1
2014-Jul-18 05:32N 41°21' E 002°10'0 0.0
2014-Jul-18 04:13N 41°21' E 002°10'0 0.0
2014-Jul-18 03:31N 41°21' E 002°10'0 0.0
2014-Jul-18 02:31N 41°21' E 002°10'0 0.0
2014-Jul-18 01:30N 41°21' E 002°10'0 0.0
2014-Jul-18 00:30N 41°21' E 002°10'0 0.0
2014-Jul-17 22:23N 41°21' E 002°10'0 0.0
2014-Jul-17 21:28N 41°21' E 002°10'0 0.0
2014-Jul-17 20:28N 41°21' E 002°10'0 0.0
2014-Jul-17 19:28N 41°21' E 002°10'0 0.0
2014-Jul-17 18:32N 41°21' E 002°10'6 5.7
2014-Jul-17 17:26N 41°15' E 002°11'1 1.2
2014-Jul-17 16:33N 41°14' E 002°10'1413.9
2014-Jul-17 15:33N 41°02' E 002°01'1514.7
2014-Jul-17 14:33N 40°49' E 001°53'1514.8
2014-Jul-17 13:33N 40°36' E 001°44'1514.8
2014-Jul-17 12:34N 40°23' E 001°35'1514.7
2014-Jul-17 11:33N 40°10' E 001°26'1414.4
2014-Jul-17 10:33N 39°57' E 001°18'1514.6
2014-Jul-17 09:33N 39°44' E 001°09'8115.0
2014-Jul-17 04:11N 38°33' E 000°20'1715.4
2014-Jul-17 03:05N 38°19' E 000°07'1616.1
2014-Jul-17 02:06N 38°06' W 000°04'814.2
2014-Jul-17 01:33N 37°60' W 000°10'1714.9
2014-Jul-17 00:25N 37°45' W 000°21'1715.3
2014-Jul-16 23:19N 37°32' W 000°34'1314.9
2014-Jul-16 22:25N 37°22' W 000°46'4715.0
2014-Jul-16 19:16N 36°51' W 001°30'1115.2
2014-Jul-16 18:33N 36°44' W 001°40'1815.0
2014-Jul-16 17:20N 36°31' W 001°57'1214.7
2014-Jul-16 16:33N 36°23' W 002°07'31712.2
2014-Jul-15 14:31N 33°36' W 007°36'0 0.0
2014-Jul-14 22:12N 33°36' W 007°36'0 0.0
2014-Jul-14 00:33N 33°36' W 007°36'5 0.4
2014-Jul-13 13:26N 33°40' W 007°33'  
Track history (hours):
 
Tides and Currents Weather Stations Pressure Air Temp Water Temp Dewpoint Dewpoint Depression Visibility Wind Speed Wind Dir Waves Ship Positions

Bf Esperanza

Last reported at 2014-Jul-23 10:19 UTC. Time now 2014-Jul-24 06:28 UTC.
Position N 36°25' W 004°03'.

Length 135 m; draft 8.3 m.

Type: Cargo ship. MMSI: 304907000.

Date/timePositionNaut miles runAvg speedWind from/ knotsBaromVisibWave heightAir tempDewpointWater temp
2014-Jul-23 10:19N 36°25' W 004°03'79 2.4
2014-Jul-22 02:11N 36°24' W 002°25'1113.1
2014-Jul-22 01:21N 36°26' W 002°12'2513.6
2014-Jul-21 23:32N 36°42' W 001°48'1413.4
2014-Jul-21 22:29N 36°51' W 001°35'1313.7
2014-Jul-21 21:33N 36°60' W 001°23'1813.5
2014-Jul-21 20:12N 37°12' W 001°05'913.5
2014-Jul-21 19:32N 37°17' W 000°57'1413.7
2014-Jul-21 18:33N 37°27' W 000°44'1313.4
2014-Jul-21 17:32N 37°36' W 000°32'1313.3
2014-Jul-21 16:31N 37°47' W 000°22'1212.9
2014-Jul-21 15:33N 37°57' W 000°14'1312.7
2014-Jul-21 14:30N 38°09' W 000°05'1312.8
2014-Jul-21 13:28N 38°20' E 000°04'6611.1
2014-Jul-21 07:33N 39°24' W 000°15'5 3.9
2014-Jul-21 06:21N 39°27' W 000°19'0 0.0
2014-Jul-21 05:33N 39°27' W 000°19'0 0.0
2014-Jul-21 04:32N 39°27' W 000°19'0 0.0
2014-Jul-21 03:29N 39°27' W 000°19'0 0.0
2014-Jul-21 02:28N 39°27' W 000°19'0 0.0
2014-Jul-21 01:31N 39°27' W 000°19'0 0.0
2014-Jul-21 00:18N 39°27' W 000°19'0 0.0
2014-Jul-20 23:24N 39°27' W 000°19'0 0.0
2014-Jul-20 22:27N 39°27' W 000°19'0 0.0
2014-Jul-20 20:23N 39°27' W 000°19'0 0.0
2014-Jul-20 19:31N 39°27' W 000°19'0 0.0
2014-Jul-20 18:31N 39°27' W 000°19'0 0.0
2014-Jul-20 17:33N 39°27' W 000°19'4 3.7
2014-Jul-20 16:33N 39°26' W 000°14'2713.7
2014-Jul-20 14:33N 39°45' E 000°12'2813.5
2014-Jul-20 12:28N 40°04' E 000°39'1213.6
2014-Jul-20 11:33N 40°12' E 000°51'1413.4
2014-Jul-20 10:33N 40°22' E 001°04'1414.0
2014-Jul-20 09:33N 40°31' E 001°17'1414.1
2014-Jul-20 08:33N 40°40' E 001°31'1414.0
2014-Jul-20 07:33N 40°49' E 001°45'1515.2
2014-Jul-20 06:33N 40°59' E 002°00'1414.1
2014-Jul-20 05:33N 41°08' E 002°15'1313.5
2014-Jul-20 04:33N 41°17' E 002°29'1413.6
2014-Jul-20 03:33N 41°25' E 002°43'1413.6
2014-Jul-20 02:32N 41°34' E 002°57'1313.6
2014-Jul-20 01:33N 41°43' E 003°10'1313.3
2014-Jul-20 00:33N 41°52' E 003°24'1413.7
2014-Jul-19 23:33N 42°01' E 003°37'1414.1
2014-Jul-19 22:33N 42°11' E 003°51'1714.2
2014-Jul-19 21:19N 42°24' E 004°07'1114.0
2014-Jul-19 20:33N 42°31' E 004°17'1714.4
2014-Jul-19 19:24N 42°44' E 004°33'294350.4
2014-Jul-19 18:34N 41°26' E 010°54'205204.8
2014-Jul-19 17:33N 38°25' E 008°49'331331.2
2014-Jul-19 16:33N 43°11' E 005°08'1312.8
2014-Jul-19 15:33N 43°21' E 005°19'1 0.7
2014-Jul-19 14:23N 43°21' E 005°20'0 0.0
2014-Jul-19 13:20N 43°21' E 005°20'0 0.0
2014-Jul-19 12:31N 43°21' E 005°20'0 0.0
2014-Jul-19 11:22N 43°21' E 005°20'0 0.0
2014-Jul-19 10:31N 43°21' E 005°20'0 0.0
2014-Jul-19 09:18N 43°21' E 005°20'0 0.0
2014-Jul-19 08:30N 43°21' E 005°20'0 0.0
2014-Jul-19 07:26N 43°21' E 005°20'0 0.0
2014-Jul-19 06:29N 43°21' E 005°20'0 0.0
2014-Jul-19 05:33N 43°21' E 005°20'0 0.0
2014-Jul-19 04:32N 43°21' E 005°20'0 0.0
2014-Jul-19 03:23N 43°21' E 005°20'0 0.0
2014-Jul-19 02:22N 43°21' E 005°20'0 0.0
2014-Jul-19 01:28N 43°21' E 005°20'0 0.0
2014-Jul-19 00:31N 43°21' E 005°20'0 0.0
2014-Jul-18 23:27N 43°21' E 005°20'0 0.0
2014-Jul-18 22:33N 43°21' E 005°20'0 0.0
2014-Jul-18 21:26N 43°21' E 005°20'0 0.0
2014-Jul-18 20:31N 43°21' E 005°20'0 0.0
2014-Jul-18 19:31N 43°21' E 005°20'4 4.3
2014-Jul-18 18:33N 43°19' E 005°15'1414.1
2014-Jul-18 17:33N 43°07' E 005°04'1515.7
2014-Jul-18 16:33N 42°56' E 004°49'1515.5
2014-Jul-18 15:34N 42°45' E 004°34'1515.4
2014-Jul-18 14:34N 42°34' E 004°20'1515.2
2014-Jul-18 13:34N 42°23' E 004°06'1515.3
2014-Jul-18 12:33N 42°12' E 003°51'1615.7
2014-Jul-18 11:33N 42°00' E 003°37'1616.0
2014-Jul-18 10:34N 41°50' E 003°21'1616.1
2014-Jul-18 09:33N 41°41' E 003°03'1716.5
2014-Jul-18 08:34N 41°31' E 002°45'1616.4
2014-Jul-18 07:33N 41°23' E 002°26'1312.7
2014-Jul-18 06:33N 41°18' E 002°10'3 3.1
2014-Jul-18 05:32N 41°21' E 002°10'0 0.0
2014-Jul-18 04:13N 41°21' E 002°10'0 0.0
2014-Jul-18 03:31N 41°21' E 002°10'0 0.0
2014-Jul-18 02:31N 41°21' E 002°10'0 0.0
2014-Jul-18 01:30N 41°21' E 002°10'0 0.0
2014-Jul-18 00:30N 41°21' E 002°10'0 0.0
2014-Jul-17 22:23N 41°21' E 002°10'0 0.0
2014-Jul-17 21:28N 41°21' E 002°10'0 0.0
2014-Jul-17 20:28N 41°21' E 002°10'0 0.0
2014-Jul-17 19:28N 41°21' E 002°10'0 0.0
2014-Jul-17 18:32N 41°21' E 002°10'6 5.7
2014-Jul-17 17:26N 41°15' E 002°11'1 1.2
2014-Jul-17 16:33N 41°14' E 002°10'1413.9
2014-Jul-17 15:33N 41°02' E 002°01'1514.7
2014-Jul-17 14:33N 40°49' E 001°53'1514.8
2014-Jul-17 13:33N 40°36' E 001°44'1514.8
2014-Jul-17 12:34N 40°23' E 001°35'1514.7
2014-Jul-17 11:33N 40°10' E 001°26'1414.4
2014-Jul-17 10:33N 39°57' E 001°18'1514.6
2014-Jul-17 09:33N 39°44' E 001°09'8115.0
2014-Jul-17 04:11N 38°33' E 000°20'1715.4
2014-Jul-17 03:05N 38°19' E 000°07'1616.1
2014-Jul-17 02:06N 38°06' W 000°04'814.2
2014-Jul-17 01:33N 37°60' W 000°10'1714.9
2014-Jul-17 00:25N 37°45' W 000°21'1715.3
2014-Jul-16 23:19N 37°32' W 000°34'1314.9
2014-Jul-16 22:25N 37°22' W 000°46'4715.0
2014-Jul-16 19:16N 36°51' W 001°30'1115.2
2014-Jul-16 18:33N 36°44' W 001°40'1815.0
2014-Jul-16 17:20N 36°31' W 001°57'1214.7
2014-Jul-16 16:33N 36°23' W 002°07'31712.2
2014-Jul-15 14:31N 33°36' W 007°36'0 0.0
2014-Jul-14 22:12N 33°36' W 007°36'0 0.0
2014-Jul-14 00:33N 33°36' W 007°36'5 0.4
2014-Jul-13 13:26N 33°40' W 007°33'  

Dump ship's entire track history